createdAt,value
2019-06-26T00:00:06.927Z,94.46
2019-06-26T00:02:37.568Z,94.22
2019-06-26T00:05:08.522Z,93.10
2019-06-26T00:07:45.567Z,93.40
2019-06-26T00:10:16.244Z,94.94
2019-06-26T00:12:47.173Z,95.48
2019-06-26T00:15:18.785Z,95.63
2019-06-26T00:17:50.907Z,95.47
2019-06-26T00:20:21.592Z,95.94
2019-06-26T00:22:55.176Z,96.43
2019-06-26T00:25:26.168Z,96.26
2019-06-26T00:27:57.571Z,96.62
2019-06-26T00:30:28.630Z,96.70
2019-06-26T00:33:02.334Z,97.10
2019-06-26T00:35:32.854Z,97.43
2019-06-26T00:38:06.565Z,97.40
2019-06-26T00:40:37.257Z,97.91
2019-06-26T00:43:07.859Z,98.84
2019-06-26T00:45:38.425Z,99.00
2019-06-26T00:48:11.372Z,98.45
2019-06-26T00:50:44.897Z,98.03
2019-06-26T00:53:15.483Z,98.71
2019-06-26T00:55:45.988Z,99.09
2019-06-26T00:58:16.660Z,99.74
2019-06-26T01:01:59.730Z,99.78
2019-06-26T01:04:34.251Z,100.00
2019-06-26T01:07:04.968Z,100.00
2019-06-26T01:09:35.566Z,100.00
2019-06-26T01:12:06.227Z,100.00
2019-06-26T01:14:37.035Z,100.00
2019-06-26T01:17:08.018Z,100.00
2019-06-26T01:19:38.871Z,100.00
2019-06-26T01:22:09.387Z,100.00
2019-06-26T01:24:40.010Z,100.00
2019-06-26T01:27:10.813Z,100.00
2019-06-26T01:29:41.463Z,100.00
2019-06-26T01:32:12.014Z,100.00
2019-06-26T01:34:45.284Z,100.00
2019-06-26T01:37:21.794Z,100.00
2019-06-26T01:39:52.255Z,100.00
2019-06-26T01:42:26.975Z,100.00
2019-06-26T01:44:57.578Z,100.00
2019-06-26T01:47:31.112Z,100.00
2019-06-26T01:50:01.995Z,100.00
2019-06-26T01:52:35.293Z,100.00
2019-06-26T01:55:06.156Z,100.00
2019-06-26T01:57:37.733Z,100.00
2019-06-26T02:00:09.647Z,100.00
2019-06-26T02:02:41.232Z,100.00
2019-06-26T02:05:11.962Z,100.00
2019-06-26T02:07:42.693Z,100.00
2019-06-26T02:10:13.634Z,100.00
2019-06-26T02:12:44.414Z,100.00
2019-06-26T02:15:15.020Z,100.00
2019-06-26T02:17:48.754Z,100.00
2019-06-26T02:20:19.277Z,100.00
2019-06-26T02:22:56.363Z,100.00
2019-06-26T02:25:46.132Z,100.00
2019-06-26T02:28:16.906Z,100.00
2019-06-26T02:30:47.892Z,100.00
2019-06-26T02:33:18.419Z,100.00
2019-06-26T02:35:48.933Z,100.00
2019-06-26T02:38:20.903Z,100.00
2019-06-26T02:40:54.597Z,100.00
2019-06-26T02:43:31.931Z,100.00
2019-06-26T02:46:02.565Z,100.00
2019-06-26T02:48:33.557Z,100.00
2019-06-26T02:51:04.193Z,100.00
2019-06-26T02:53:38.765Z,100.00
2019-06-26T02:56:09.504Z,100.00
2019-06-26T03:02:01.764Z,100.00
2019-06-26T03:04:32.434Z,100.00
2019-06-26T03:07:03.324Z,100.00
2019-06-26T03:09:33.965Z,100.00
2019-06-26T03:12:05.931Z,100.00
2019-06-26T03:14:36.556Z,100.00
2019-06-26T03:17:07.157Z,100.00
2019-06-26T03:19:38.047Z,100.00
2019-06-26T03:22:08.851Z,100.00
2019-06-26T03:24:39.858Z,100.00
2019-06-26T03:27:10.421Z,100.00
2019-06-26T03:29:41.202Z,100.00
2019-06-26T03:32:14.966Z,100.00
2019-06-26T03:34:45.601Z,100.00
2019-06-26T03:37:16.214Z,100.00
2019-06-26T03:39:53.486Z,100.00
2019-06-26T03:42:24.304Z,100.00
2019-06-26T03:44:55.805Z,100.00
2019-06-26T03:47:26.825Z,100.00
2019-06-26T03:49:57.419Z,100.00
2019-06-26T03:52:27.973Z,100.00
2019-06-26T03:54:58.513Z,100.00
2019-06-26T03:57:29.021Z,100.00
2019-06-26T03:59:59.694Z,100.00
2019-06-26T04:02:30.759Z,100.00
2019-06-26T04:05:01.604Z,100.00
2019-06-26T04:07:32.387Z,100.00
2019-06-26T04:10:02.997Z,99.85
2019-06-26T04:12:33.771Z,100.00
2019-06-26T04:15:05.165Z,99.98
2019-06-26T04:17:36.130Z,99.64
2019-06-26T04:20:11.400Z,99.33
2019-06-26T04:22:42.227Z,99.80
2019-06-26T04:25:15.662Z,100.00
2019-06-26T04:27:46.339Z,99.62
2019-06-26T04:30:19.239Z,98.46
2019-06-26T04:32:52.285Z,98.17
2019-06-26T04:35:23.640Z,97.22
2019-06-26T04:37:57.405Z,97.16
2019-06-26T04:40:32.036Z,96.19
2019-06-26T04:43:02.819Z,95.60
2019-06-26T04:45:33.749Z,94.47
2019-06-26T04:48:07.067Z,89.45
2019-06-26T04:50:36.962Z,85.33
2019-06-26T04:53:11.130Z,83.55
2019-06-26T04:55:41.678Z,81.38
2019-06-26T04:58:15.089Z,79.70
2019-06-26T05:01:59.274Z,78.03
2019-06-26T05:04:29.846Z,77.91
2019-06-26T05:07:00.347Z,77.14
2019-06-26T05:09:30.896Z,75.14
2019-06-26T05:12:01.506Z,72.84
2019-06-26T05:14:33.738Z,74.08
2019-06-26T05:17:06.996Z,74.93
2019-06-26T05:19:37.588Z,74.14
2019-06-26T05:22:08.944Z,70.37
2019-06-26T05:24:39.514Z,72.43
2019-06-26T05:27:10.179Z,68.55
2019-06-26T05:29:43.912Z,68.20
2019-06-26T05:32:14.520Z,69.50
2019-06-26T05:34:45.052Z,67.83
2019-06-26T05:37:17.995Z,68.93
2019-06-26T05:39:49.998Z,66.86
2019-06-26T05:42:23.782Z,67.99
2019-06-26T05:45:02.978Z,68.17
2019-06-26T05:47:33.845Z,68.89
2019-06-26T05:50:04.847Z,69.75
2019-06-26T05:52:35.369Z,67.84
2019-06-26T05:55:06.274Z,67.37
2019-06-26T05:57:48.446Z,67.77
2019-06-26T06:00:19.502Z,68.98
2019-06-26T06:02:53.647Z,69.33
2019-06-26T06:05:22.608Z,67.36
2019-06-26T06:07:53.094Z,64.68
2019-06-26T06:10:23.813Z,63.76
2019-06-26T06:12:54.330Z,64.46
2019-06-26T06:15:24.915Z,64.64
2019-06-26T06:17:55.462Z,62.71
2019-06-26T06:20:36.929Z,65.47
2019-06-26T06:23:08.659Z,63.80
2019-06-26T06:25:39.590Z,62.69
2019-06-26T06:28:10.331Z,63.17
2019-06-26T06:30:40.830Z,62.57
2019-06-26T06:33:14.363Z,63.04
2019-06-26T06:35:45.697Z,61.25
2019-06-26T06:38:16.850Z,62.09
2019-06-26T06:40:47.385Z,62.12
2019-06-26T06:43:17.989Z,59.85
2019-06-26T06:45:48.456Z,61.35
2019-06-26T06:48:21.545Z,61.28
2019-06-26T06:50:52.171Z,60.17
2019-06-26T06:53:22.681Z,60.53
2019-06-26T06:55:53.319Z,60.37
2019-06-26T07:02:01.489Z,56.95
2019-06-26T07:04:31.887Z,56.87
2019-06-26T07:07:08.652Z,59.98
2019-06-26T07:09:39.058Z,58.29
2019-06-26T07:12:09.756Z,59.36
2019-06-26T07:14:40.856Z,60.79
2019-06-26T07:17:20.493Z,58.53
2019-06-26T07:19:43.688Z,58.29
2019-06-26T07:22:14.342Z,59.69
2019-06-26T07:24:45.192Z,58.56
2019-06-26T07:27:15.764Z,57.34
2019-06-26T07:29:51.987Z,57.53
2019-06-26T07:32:26.633Z,57.89
2019-06-26T07:34:57.184Z,58.41
2019-06-26T07:37:28.032Z,58.63
2019-06-26T07:40:01.862Z,58.64
2019-06-26T07:42:33.835Z,57.26
2019-06-26T07:45:07.886Z,58.25
2019-06-26T07:47:43.809Z,58.19
2019-06-26T07:50:12.470Z,58.24
2019-06-26T07:52:44.586Z,57.10
2019-06-26T07:55:15.848Z,57.98
2019-06-26T07:57:52.359Z,57.01
2019-06-26T08:00:23.012Z,56.97
2019-06-26T08:02:53.935Z,57.22
2019-06-26T08:05:24.584Z,59.17
2019-06-26T08:07:55.085Z,58.92
2019-06-26T08:10:25.649Z,57.43
2019-06-26T08:12:58.455Z,57.76
2019-06-26T08:15:28.993Z,57.57
2019-06-26T08:18:02.382Z,58.25
2019-06-26T08:20:55.154Z,57.55
2019-06-26T08:23:13.283Z,56.70
2019-06-26T08:25:43.898Z,58.55
2019-06-26T08:28:14.661Z,56.15
2019-06-26T08:30:48.011Z,57.27
2019-06-26T08:33:19.774Z,56.98
2019-06-26T08:35:50.646Z,58.29
2019-06-26T08:38:21.155Z,57.26
2019-06-26T08:40:51.692Z,58.49
2019-06-26T08:43:31.204Z,57.71
2019-06-26T08:46:00.999Z,57.38
2019-06-26T08:48:40.021Z,58.61
2019-06-26T08:51:15.219Z,57.57
2019-06-26T08:53:46.230Z,57.64
2019-06-26T08:56:16.858Z,57.13
2019-06-26T09:01:58.979Z,58.09
2019-06-26T09:04:29.743Z,58.10
2019-06-26T09:07:00.277Z,57.66
2019-06-26T09:09:30.901Z,56.38
2019-06-26T09:12:01.546Z,56.80
2019-06-26T09:14:32.077Z,56.95
2019-06-26T09:17:02.666Z,56.30
2019-06-26T09:19:33.314Z,55.49
2019-06-26T09:22:03.799Z,56.04
2019-06-26T09:24:34.433Z,55.84
2019-06-26T09:27:05.332Z,56.53
2019-06-26T09:29:35.887Z,55.88
2019-06-26T09:32:06.467Z,56.44
2019-06-26T09:34:36.988Z,56.23
2019-06-26T09:37:07.765Z,56.59
2019-06-26T09:39:38.280Z,55.13
2019-06-26T09:42:08.979Z,56.29
2019-06-26T09:44:39.814Z,55.82
2019-06-26T09:47:10.207Z,54.85
2019-06-26T09:49:40.934Z,53.27
2019-06-26T09:52:11.419Z,54.79
2019-06-26T09:54:42.287Z,55.69
2019-06-26T09:57:15.042Z,54.78
2019-06-26T09:59:46.297Z,54.70
2019-06-26T10:02:16.867Z,54.48
2019-06-26T10:04:47.347Z,55.28
2019-06-26T10:07:18.250Z,53.14
2019-06-26T10:09:48.825Z,52.51
2019-06-26T10:12:19.467Z,53.64
2019-06-26T10:14:50.093Z,52.93
2019-06-26T10:17:20.789Z,53.54
2019-06-26T10:19:54.045Z,54.20
2019-06-26T10:22:23.679Z,52.42
2019-06-26T10:24:54.184Z,53.26
2019-06-26T10:27:25.057Z,54.26
2019-06-26T10:29:55.857Z,54.27
2019-06-26T10:32:26.419Z,55.28
2019-06-26T10:34:57.077Z,55.12
2019-06-26T10:37:27.606Z,55.10
2019-06-26T10:39:58.077Z,54.61
2019-06-26T10:42:28.806Z,52.67
2019-06-26T10:44:59.463Z,53.94
2019-06-26T10:47:30.063Z,54.65
2019-06-26T10:50:03.099Z,53.67
2019-06-26T10:52:33.916Z,52.38
2019-06-26T10:55:06.116Z,53.25
2019-06-26T10:57:36.634Z,53.47
2019-06-26T11:01:58.991Z,52.95
2019-06-26T11:04:29.517Z,53.18
2019-06-26T11:07:01.004Z,52.42
2019-06-26T11:09:31.965Z,51.31
2019-06-26T11:12:02.981Z,52.79
2019-06-26T11:14:33.582Z,52.90
2019-06-26T11:17:04.162Z,51.38
2019-06-26T11:19:43.621Z,52.14
2019-06-26T11:22:07.717Z,52.25
2019-06-26T11:24:38.240Z,51.41
2019-06-26T11:27:08.757Z,49.78
2019-06-26T11:29:39.646Z,50.03
2019-06-26T11:32:10.309Z,50.57
2019-06-26T11:34:40.780Z,50.75
2019-06-26T11:37:11.362Z,49.91
2019-06-26T11:39:41.852Z,51.08
2019-06-26T11:42:12.391Z,49.50
2019-06-26T11:44:42.942Z,49.54
2019-06-26T11:47:13.506Z,49.72
2019-06-26T11:49:58.981Z,48.22
2019-06-26T11:52:16.238Z,49.48
2019-06-26T11:55:01.386Z,50.19
2019-06-26T11:57:19.792Z,49.72
2019-06-26T11:59:50.284Z,49.52
2019-06-26T12:02:20.840Z,48.73
2019-06-26T12:04:51.418Z,47.12
2019-06-26T12:07:23.860Z,46.45
2019-06-26T12:09:54.512Z,45.93
2019-06-26T12:12:28.178Z,47.09
2019-06-26T12:14:58.871Z,46.75
2019-06-26T12:17:29.439Z,47.59
2019-06-26T12:20:13.665Z,46.79
2019-06-26T12:22:36.879Z,46.81
2019-06-26T12:25:10.574Z,46.51
2019-06-26T12:27:43.053Z,45.30
2019-06-26T12:30:14.902Z,43.53
2019-06-26T12:33:01.593Z,45.45
2019-06-26T12:35:18.148Z,44.18
2019-06-26T12:37:51.341Z,45.56
2019-06-26T12:40:22.070Z,45.49
2019-06-26T12:43:02.511Z,43.91
2019-06-26T12:45:33.135Z,42.96
2019-06-26T12:48:05.804Z,44.08
2019-06-26T12:50:36.555Z,44.41
2019-06-26T12:53:07.151Z,42.45
2019-06-26T12:55:37.715Z,42.65
2019-06-26T12:58:13.963Z,43.46
2019-06-26T13:01:59.322Z,43.83
2019-06-26T13:04:29.855Z,43.77
2019-06-26T13:07:00.429Z,44.94
2019-06-26T13:09:30.956Z,44.29
2019-06-26T13:12:01.928Z,43.47
2019-06-26T13:14:32.466Z,43.04
2019-06-26T13:17:03.211Z,44.77
2019-06-26T13:19:33.759Z,44.36
2019-06-26T13:22:04.310Z,43.85
2019-06-26T13:24:34.966Z,43.60
2019-06-26T13:27:05.582Z,42.18
2019-06-26T13:29:36.378Z,43.34
2019-06-26T13:32:07.843Z,43.57
2019-06-26T13:34:38.389Z,44.39
2019-06-26T13:37:08.938Z,44.28
2019-06-26T13:39:39.540Z,44.93
2019-06-26T13:42:10.400Z,45.00
2019-06-26T13:44:40.907Z,44.76
2019-06-26T13:47:11.772Z,45.07
2019-06-26T13:49:42.342Z,44.50
2019-06-26T13:52:12.922Z,43.98
2019-06-26T13:54:43.462Z,44.07
2019-06-26T13:57:15.943Z,43.89
2019-06-26T13:59:46.355Z,43.81
2019-06-26T14:02:20.078Z,43.36
2019-06-26T14:04:51.255Z,42.68
2019-06-26T14:07:21.789Z,43.92
2019-06-26T14:09:52.327Z,42.51
2019-06-26T14:12:22.898Z,42.75
2019-06-26T14:14:57.725Z,42.28
2019-06-26T14:17:28.398Z,43.30
2019-06-26T14:19:58.985Z,42.55
2019-06-26T14:22:29.541Z,42.55
2019-06-26T14:25:00.037Z,43.35
2019-06-26T14:27:30.594Z,42.46
2019-06-26T14:30:01.052Z,41.86
2019-06-26T14:32:31.702Z,42.60
2019-06-26T14:35:02.123Z,43.24
2019-06-26T14:37:33.039Z,42.47
2019-06-26T14:40:03.829Z,42.40
2019-06-26T14:42:34.456Z,42.81
2019-06-26T14:45:05.980Z,42.56
2019-06-26T14:47:42.732Z,41.58
2019-06-26T14:50:13.612Z,43.22
2019-06-26T14:52:45.974Z,42.34
2019-06-26T14:55:17.260Z,42.53
2019-06-26T14:57:47.825Z,43.08
2019-06-26T15:01:58.268Z,43.49
2019-06-26T15:04:29.422Z,42.09
2019-06-26T15:07:00.237Z,43.30
2019-06-26T15:09:30.758Z,44.28
2019-06-26T15:12:03.598Z,45.01
2019-06-26T15:14:35.887Z,44.13
2019-06-26T15:17:06.758Z,43.30
2019-06-26T15:19:37.352Z,43.58
2019-06-26T15:22:08.056Z,43.58
2019-06-26T15:24:38.710Z,43.42
2019-06-26T15:27:09.417Z,43.91
2019-06-26T15:29:40.146Z,42.84
2019-06-26T15:32:10.697Z,42.61
2019-06-26T15:34:44.640Z,42.92
2019-06-26T15:37:17.889Z,43.99
2019-06-26T15:39:48.682Z,43.30
2019-06-26T15:42:19.427Z,43.30
2019-06-26T15:44:49.902Z,43.12
2019-06-26T15:47:20.447Z,42.86
2019-06-26T15:49:53.420Z,43.71
2019-06-26T15:52:23.875Z,43.78
2019-06-26T15:54:54.516Z,43.76
2019-06-26T15:57:25.188Z,42.23
2019-06-26T15:59:56.042Z,43.25
2019-06-26T16:02:29.883Z,43.19
2019-06-26T16:05:00.765Z,43.17
2019-06-26T16:07:31.433Z,43.46
2019-06-26T16:10:05.604Z,43.00
2019-06-26T16:12:36.211Z,42.81
2019-06-26T16:15:07.686Z,44.19
2019-06-26T16:18:05.673Z,44.48
2019-06-26T16:20:36.274Z,45.40
2019-06-26T16:23:06.969Z,45.20
2019-06-26T16:25:37.750Z,45.46
2019-06-26T16:28:08.912Z,46.22
2019-06-26T16:30:39.538Z,46.16
2019-06-26T16:33:10.017Z,46.64
2019-06-26T16:35:40.492Z,46.94
2019-06-26T16:38:11.015Z,46.41
2019-06-26T16:40:41.683Z,46.09
2019-06-26T16:43:12.336Z,48.02
2019-06-26T16:45:43.031Z,47.25
2019-06-26T16:48:13.683Z,46.31
2019-06-26T16:50:44.771Z,44.87
2019-06-26T16:53:15.318Z,42.35
2019-06-26T16:55:45.698Z,41.39
2019-06-26T16:58:16.158Z,41.06
2019-06-26T17:12:22.102Z,38.12
2019-06-26T17:14:52.843Z,38.62
2019-06-26T17:17:23.564Z,38.86
2019-06-26T17:19:54.134Z,39.11
2019-06-26T17:22:24.626Z,41.80
2019-06-26T17:24:55.169Z,44.08
2019-06-26T17:27:25.709Z,45.08
2019-06-26T17:29:56.443Z,46.97
2019-06-26T17:32:27.100Z,47.65
2019-06-26T17:34:58.086Z,48.18
2019-06-26T17:37:28.576Z,49.01
2019-06-26T17:39:59.205Z,48.82
2019-06-26T17:42:29.773Z,49.69
2019-06-26T17:45:00.299Z,49.87
2019-06-26T17:47:30.975Z,50.34
2019-06-26T17:50:01.606Z,51.13
2019-06-26T17:52:35.605Z,50.71
2019-06-26T17:55:04.960Z,50.83
2019-06-26T17:57:35.452Z,50.98
2019-06-26T18:00:07.602Z,51.48
2019-06-26T18:02:38.184Z,51.10
2019-06-26T18:05:08.821Z,51.57
2019-06-26T18:07:39.393Z,51.44
2019-06-26T18:10:11.318Z,51.69
2019-06-26T18:12:41.884Z,51.91
2019-06-26T18:15:12.983Z,52.29
2019-06-26T18:17:43.739Z,53.44
2019-06-26T18:20:14.596Z,53.99
2019-06-26T18:22:45.251Z,53.64
2019-06-26T18:25:20.401Z,52.60
2019-06-26T18:27:51.753Z,51.54
2019-06-26T18:30:23.016Z,52.39
2019-06-26T18:32:53.391Z,53.13
2019-06-26T18:35:23.966Z,53.88
2019-06-26T18:37:54.464Z,54.61
2019-06-26T18:40:25.383Z,55.74
2019-06-26T18:42:56.265Z,56.59
2019-06-26T18:45:26.742Z,56.45
2019-06-26T18:47:57.609Z,57.20
2019-06-26T18:50:28.162Z,59.92
2019-06-26T18:52:59.382Z,63.09
2019-06-26T18:55:29.866Z,64.17
2019-06-26T18:58:03.573Z,65.25
2019-06-26T19:01:58.465Z,65.48
2019-06-26T19:04:29.033Z,66.31
2019-06-26T19:06:59.793Z,66.96
2019-06-26T19:09:30.487Z,68.07
2019-06-26T19:12:01.034Z,68.33
2019-06-26T19:14:31.743Z,69.07
2019-06-26T19:17:02.642Z,69.49
2019-06-26T19:19:33.260Z,69.78
2019-06-26T19:22:03.869Z,70.35
2019-06-26T19:24:34.387Z,70.58
2019-06-26T19:27:07.696Z,71.12
2019-06-26T19:29:37.616Z,70.96
2019-06-26T19:32:08.392Z,70.97
2019-06-26T19:34:39.061Z,70.65
2019-06-26T19:37:09.763Z,70.92
2019-06-26T19:39:40.493Z,70.74
2019-06-26T19:42:13.281Z,71.38
2019-06-26T19:44:44.448Z,72.39
2019-06-26T19:47:15.181Z,71.28
2019-06-26T19:49:45.979Z,72.05
2019-06-26T19:52:16.917Z,71.87
2019-06-26T19:54:50.669Z,72.36
2019-06-26T19:57:21.197Z,73.03
2019-06-26T19:59:52.161Z,72.86
2019-06-26T20:02:22.875Z,72.93
2019-06-26T20:04:53.886Z,72.81
2019-06-26T20:07:24.869Z,73.33
2019-06-26T20:09:56.097Z,73.04
2019-06-26T20:12:26.840Z,74.49
2019-06-26T20:14:57.765Z,75.27
2019-06-26T20:17:28.380Z,75.97
2019-06-26T20:19:59.362Z,76.30
2019-06-26T20:22:29.925Z,76.20
2019-06-26T20:25:00.537Z,76.32
2019-06-26T20:27:31.650Z,75.70
2019-06-26T20:30:04.925Z,75.52
2019-06-26T20:32:35.697Z,74.83
2019-06-26T20:35:08.895Z,74.28
2019-06-26T20:37:39.727Z,73.51
2019-06-26T20:40:10.789Z,74.68
2019-06-26T20:42:41.176Z,74.65
2019-06-26T20:45:12.541Z,74.53
2019-06-26T20:47:43.372Z,74.70
2019-06-26T20:50:14.168Z,75.00
2019-06-26T20:52:44.730Z,75.75
2019-06-26T20:55:15.362Z,75.79
2019-06-26T20:57:46.042Z,75.21
2019-06-26T21:01:58.365Z,75.78
2019-06-26T21:04:28.804Z,76.79
2019-06-26T21:06:59.330Z,76.88
2019-06-26T21:09:29.855Z,75.91
2019-06-26T21:12:01.142Z,76.37
2019-06-26T21:14:31.697Z,76.64
2019-06-26T21:17:02.455Z,76.87
2019-06-26T21:19:32.994Z,77.68
2019-06-26T21:22:08.836Z,77.45
2019-06-26T21:24:38.215Z,77.95
2019-06-26T21:27:08.700Z,78.83
2019-06-26T21:29:39.175Z,78.70
2019-06-26T21:32:09.601Z,79.51
2019-06-26T21:34:40.046Z,79.44
2019-06-26T21:37:10.332Z,79.54
2019-06-26T21:39:40.739Z,80.17
2019-06-26T21:42:11.076Z,80.11
2019-06-26T21:44:41.508Z,79.89
2019-06-26T21:47:11.685Z,79.81
2019-06-26T21:49:42.622Z,79.35
2019-06-26T21:52:12.927Z,78.12
2019-06-26T21:54:43.328Z,77.83
2019-06-26T21:57:16.095Z,77.91
2019-06-26T21:59:46.373Z,77.90
2019-06-26T22:02:16.820Z,77.71
2019-06-26T22:04:47.146Z,78.18
2019-06-26T22:07:17.862Z,78.42
2019-06-26T22:09:48.374Z,78.78
2019-06-26T22:12:19.007Z,79.16
2019-06-26T22:14:49.445Z,79.56
2019-06-26T22:17:19.845Z,79.51
2019-06-26T22:19:50.613Z,80.73
2019-06-26T22:22:21.056Z,80.26
2019-06-26T22:24:51.622Z,80.78
2019-06-26T22:27:22.158Z,80.47
2019-06-26T22:29:52.700Z,80.44
2019-06-26T22:32:23.139Z,80.90
2019-06-26T22:34:53.426Z,81.65
2019-06-26T22:37:24.028Z,82.00
2019-06-26T22:39:54.661Z,82.54
2019-06-26T22:42:25.279Z,82.93
2019-06-26T22:44:55.825Z,83.04
2019-06-26T22:47:26.579Z,82.86
2019-06-26T22:49:57.043Z,82.40
2019-06-26T22:52:27.470Z,82.63
2019-06-26T22:54:57.857Z,82.67
2019-06-26T22:57:28.083Z,83.40
2019-06-26T23:01:57.625Z,83.26
2019-06-26T23:04:27.977Z,83.85
2019-06-26T23:06:58.396Z,83.50
2019-06-26T23:09:28.751Z,83.33
2019-06-26T23:11:59.274Z,84.06
2019-06-26T23:14:29.598Z,84.15
2019-06-26T23:17:00.175Z,84.41
2019-06-26T23:19:30.659Z,84.43
2019-06-26T23:22:01.161Z,84.70
2019-06-26T23:24:31.543Z,84.75
2019-06-26T23:27:02.007Z,84.78
2019-06-26T23:29:32.584Z,85.40
2019-06-26T23:32:03.550Z,85.95
2019-06-26T23:34:33.872Z,86.20
2019-06-26T23:37:04.232Z,86.76
2019-06-26T23:39:34.657Z,87.08
2019-06-26T23:42:05.237Z,86.76
2019-06-26T23:44:36.127Z,86.65
2019-06-26T23:47:06.818Z,87.18
2019-06-26T23:49:37.487Z,87.51
2019-06-26T23:52:07.857Z,87.41
2019-06-26T23:54:38.314Z,87.17
2019-06-26T23:57:08.713Z,87.70
2019-06-26T23:59:39.296Z,88.27
